Time;durP1;ratioP1;P1;durP2;ratioP2;P2;SDS_P1;SDS_P2;PMS_P1;PMS_P2;Temp;Humidity;BMP_temperature;BMP_pressure;BME280_temperature;BME280_humidity;BME280_pressure;Samples;Min_cycle;Max_cycle;Signal;HPM_P1;HPM_P2
2021/04/01 00:00:16;;;;;;;8.93;3.92;;;4.30;99.90;;;;;;4354034;32;20086;-59
2021/04/01 00:02:47;;;;;;;6.22;4.28;;;4.20;99.90;;;;;;4365662;32;20062;-59
2021/04/01 00:05:14;;;;;;;6.43;4.28;;;4.20;99.90;;;;;;4368894;32;20066;-60
2021/04/01 00:07:40;;;;;;;6.78;4.28;;;4.20;99.90;;;;;;4381402;32;20485;-60
2021/04/01 00:10:10;;;;;;;7.10;5.15;;;4.20;99.90;;;;;;4366183;32;20544;-59
2021/04/01 00:12:36;;;;;;;6.22;4.55;;;4.20;99.90;;;;;;4354959;32;20166;-59
2021/04/01 00:15:05;;;;;;;6.00;4.50;;;4.20;99.90;;;;;;4364614;32;20141;-64
2021/04/01 00:17:31;;;;;;;6.80;4.65;;;4.20;99.90;;;;;;4354706;32;20070;-60
2021/04/01 00:19:57;;;;;;;11.90;5.03;;;4.20;99.90;;;;;;4366848;32;20081;-59
2021/04/01 00:22:23;;;;;;;7.55;4.80;;;4.20;99.90;;;;;;4354673;32;20074;-60
2021/04/01 00:24:49;;;;;;;7.28;4.45;;;4.20;99.90;;;;;;4367382;32;20627;-61
2021/04/01 00:27:16;;;;;;;6.78;4.75;;;4.30;99.90;;;;;;4367160;32;20070;-59
2021/04/01 00:29:42;;;;;;;7.22;5.15;;;4.30;99.90;;;;;;4381205;32;20081;-59
2021/04/01 00:32:08;;;;;;;7.15;4.62;;;4.20;99.90;;;;;;4365970;32;20138;-60
2021/04/01 00:34:34;;;;;;;7.35;4.93;;;4.40;99.90;;;;;;4356598;32;20500;-62
2021/04/01 00:37:01;;;;;;;6.68;3.97;;;4.30;99.90;;;;;;4374192;32;20590;-59
2021/04/01 00:39:27;;;;;;;5.95;4.03;;;4.40;99.90;;;;;;4351713;32;20097;-58
2021/04/01 00:41:53;;;;;;;7.28;4.93;;;4.40;99.90;;;;;;4363672;32;20167;-60
2021/04/01 00:44:19;;;;;;;7.18;4.87;;;4.40;99.90;;;;;;4351048;32;20069;-59
2021/04/01 00:46:47;;;;;;;6.87;4.50;;;4.50;99.90;;;;;;4348364;32;20189;-59
2021/04/01 00:49:14;;;;;;;6.75;4.47;;;4.50;99.90;;;;;;4349862;32;20069;-59
2021/04/01 00:51:41;;;;;;;8.05;5.10;;;4.50;99.90;;;;;;4350478;32;20149;-59
2021/04/01 00:54:07;;;;;;;6.50;4.37;;;4.40;99.90;;;;;;4338562;32;20068;-59
2021/04/01 00:56:33;;;;;;;6.65;4.87;;;4.40;99.90;;;;;;4362751;32;20460;-58
2021/04/01 00:58:59;;;;;;;8.32;5.05;;;4.40;99.90;;;;;;4350462;32;20082;-58
2021/04/01 01:03:52;;;;;;;8.77;5.45;;;4.40;99.90;;;;;;4362065;32;20491;-61
2021/04/01 01:06:18;;;;;;;7.65;4.62;;;4.50;99.90;;;;;;4361998;32;20097;-60
2021/04/01 01:08:45;;;;;;;7.28;5.25;;;4.40;99.90;;;;;;4350186;32;20073;-59
2021/04/01 01:11:11;;;;;;;7.70;4.95;;;4.50;99.90;;;;;;4350469;32;20085;-59
2021/04/01 01:13:37;;;;;;;8.75;4.72;;;4.50;99.90;;;;;;4350344;32;20100;-59
2021/04/01 01:16:04;;;;;;;6.80;4.20;;;4.50;99.90;;;;;;4362524;32;20652;-58
2021/04/01 01:18:30;;;;;;;7.35;4.80;;;4.60;99.90;;;;;;4349725;32;20068;-60
2021/04/01 01:20:58;;;;;;;8.07;4.93;;;4.60;99.90;;;;;;4349891;32;20445;-58
2021/04/01 01:23:28;;;;;;;7.30;4.90;;;4.60;99.90;;;;;;4337561;32;20074;-59
2021/04/01 01:25:55;;;;;;;6.78;5.37;;;4.50;99.90;;;;;;4350521;32;20185;-59
2021/04/01 01:28:22;;;;;;;8.20;4.72;;;4.60;99.90;;;;;;4350018;32;20628;-59
2021/04/01 01:30:49;;;;;;;6.80;4.55;;;4.50;99.90;;;;;;4327726;32;20520;-59
2021/04/01 01:33:20;;;;;;;7.70;5.35;;;4.60;99.90;;;;;;4347566;32;20085;-58
2021/04/01 01:35:48;;;;;;;6.35;4.53;;;4.60;99.90;;;;;;4362861;32;20454;-59
2021/04/01 01:38:15;;;;;;;7.55;5.37;;;4.60;99.90;;;;;;4349382;32;20521;-58
2021/04/01 01:40:41;;;;;;;7.65;4.72;;;4.60;99.90;;;;;;4350295;32;20077;-58
2021/04/01 01:43:10;;;;;;;7.82;5.25;;;4.60;99.90;;;;;;4350112;32;20073;-58
2021/04/01 01:45:37;;;;;;;7.28;4.57;;;4.60;99.90;;;;;;4349837;32;20582;-58
2021/04/01 01:48:04;;;;;;;6.65;4.82;;;4.60;99.90;;;;;;4362163;32;20105;-59
2021/04/01 01:50:32;;;;;;;7.30;4.57;;;4.50;99.90;;;;;;4337620;32;20074;-58
2021/04/01 01:52:58;;;;;;;7.35;4.95;;;4.60;99.90;;;;;;4349270;32;20064;-58
2021/04/01 01:55:25;;;;;;;7.90;5.25;;;4.50;99.90;;;;;;4337915;32;20163;-59
2021/04/01 01:57:51;;;;;;;6.85;5.07;;;4.50;99.90;;;;;;4339080;32;20075;-60
2021/04/01 02:00:33;;;;;;;7.80;4.62;;;4.40;99.90;;;;;;4342021;32;20074;-59
2021/04/01 02:03:03;;;;;;;6.85;4.25;;;4.50;99.90;;;;;;4362931;32;20153;-59
2021/04/01 02:05:30;;;;;;;7.18;4.80;;;4.50;99.90;;;;;;4361908;32;20081;-58
2021/04/01 02:07:56;;;;;;;7.35;5.10;;;4.40;99.90;;;;;;4321390;32;20079;-59
2021/04/01 02:10:35;;;;;;;6.95;5.30;;;4.40;99.90;;;;;;4347239;32;20090;-58
2021/04/01 02:13:01;;;;;;;8.18;4.60;;;4.40;99.90;;;;;;4358731;32;20113;-59
2021/04/01 02:15:33;;;;;;;7.18;5.30;;;4.50;99.90;;;;;;4341379;32;20077;-59
2021/04/01 02:18:16;;;;;;;7.28;5.20;;;4.50;99.90;;;;;;4366841;32;20070;-62
2021/04/01 02:20:49;;;;;;;7.57;4.70;;;4.40;99.90;;;;;;4354442;32;20134;-59
2021/04/01 02:23:29;;;;;;;8.40;5.15;;;4.40;99.90;;;;;;4335021;32;20062;-58
2021/04/01 02:25:56;;;;;;;7.75;4.82;;;4.40;99.90;;;;;;4355003;32;20162;-58
2021/04/01 02:28:24;;;;;;;7.62;5.12;;;4.40;99.90;;;;;;4352384;32;20555;-59
2021/04/01 02:30:53;;;;;;;6.43;4.70;;;4.40;99.90;;;;;;4352786;32;20077;-58
2021/04/01 02:33:20;;;;;;;7.00;5.03;;;4.50;99.90;;;;;;4329073;32;20062;-59
2021/04/01 02:35:46;;;;;;;8.30;4.55;;;4.50;99.90;;;;;;4343604;32;20071;-59
2021/04/01 02:38:13;;;;;;;7.85;5.78;;;4.50;99.90;;;;;;4351751;32;20063;-59
2021/04/01 02:40:39;;;;;;;8.50;5.70;;;4.50;99.90;;;;;;4339938;32;20074;-59
2021/04/01 02:43:06;;;;;;;8.32;5.87;;;4.50;99.90;;;;;;4339599;32;20093;-60
2021/04/01 02:45:33;;;;;;;6.55;5.30;;;4.50;99.90;;;;;;4352286;32;20070;-60
2021/04/01 02:47:59;;;;;;;6.57;5.32;;;4.60;99.90;;;;;;4351759;32;20066;-59
2021/04/01 02:50:25;;;;;;;8.60;5.75;;;4.50;99.90;;;;;;4378472;32;20069;-58
2021/04/01 02:52:51;;;;;;;8.98;5.95;;;4.40;99.90;;;;;;4337148;32;20062;-59
2021/04/01 02:55:18;;;;;;;9.13;5.53;;;4.40;99.90;;;;;;4377288;32;20071;-58
2021/04/01 02:57:44;;;;;;;7.22;4.85;;;4.40;99.90;;;;;;4364418;32;20077;-58
2021/04/01 03:00:14;;;;;;;8.88;5.03;;;4.40;99.90;;;;;;4364482;32;20074;-59
2021/04/01 03:02:43;;;;;;;7.65;5.22;;;4.40;99.90;;;;;;4340305;32;20518;-60
2021/04/01 03:05:11;;;;;;;9.00;5.50;;;4.40;99.90;;;;;;4347197;32;20062;-59
2021/04/01 03:07:38;;;;;;;7.60;5.32;;;4.40;99.90;;;;;;4348472;32;20486;-58
2021/04/01 03:10:06;;;;;;;7.95;5.87;;;4.40;99.90;;;;;;4339992;32;20438;-60
2021/04/01 03:12:32;;;;;;;7.87;5.75;;;4.40;99.90;;;;;;4351930;32;20061;-59
2021/04/01 03:14:58;;;;;;;7.70;4.82;;;4.40;99.90;;;;;;4364399;32;20074;-58
2021/04/01 03:17:25;;;;;;;8.20;5.15;;;4.40;99.90;;;;;;4327355;32;20086;-59
2021/04/01 03:19:51;;;;;;;7.87;5.82;;;4.40;99.90;;;;;;4339501;32;20077;-58
2021/04/01 03:22:17;;;;;;;7.72;5.22;;;4.40;99.90;;;;;;4363951;32;20070;-58
2021/04/01 03:24:44;;;;;;;7.53;5.53;;;4.40;99.90;;;;;;4339454;32;20509;-58
2021/04/01 03:27:10;;;;;;;8.30;6.12;;;4.40;99.90;;;;;;4363432;32;20065;-59
2021/04/01 03:29:37;;;;;;;7.85;5.82;;;4.40;99.90;;;;;;4351981;32;20436;-58
2021/04/01 03:32:04;;;;;;;8.57;5.50;;;4.40;99.90;;;;;;4377823;32;20116;-59
2021/04/01 03:34:30;;;;;;;9.32;5.87;;;4.40;99.90;;;;;;4364044;32;20069;-59
2021/04/01 03:36:56;;;;;;;8.35;5.70;;;4.40;99.90;;;;;;4363200;32;20100;-59
2021/04/01 03:39:22;;;;;;;7.37;5.40;;;4.30;99.90;;;;;;4351721;32;20086;-58
2021/04/01 03:41:49;;;;;;;7.43;5.30;;;4.40;99.90;;;;;;4364731;32;20074;-58
2021/04/01 03:44:15;;;;;;;7.60;5.62;;;4.40;99.90;;;;;;4364225;32;20085;-58
2021/04/01 03:46:41;;;;;;;7.37;5.55;;;4.30;99.90;;;;;;4341067;32;20078;-59
2021/04/01 03:49:07;;;;;;;7.62;5.28;;;4.40;99.90;;;;;;4375320;32;20158;-59
2021/04/01 03:51:33;;;;;;;7.25;6.00;;;4.40;99.90;;;;;;4363300;32;20080;-61
2021/04/01 03:54:00;;;;;;;7.30;6.05;;;4.40;99.90;;;;;;4368942;32;20073;-59
2021/04/01 03:56:26;;;;;;;7.00;5.03;;;4.40;99.90;;;;;;4343479;32;20159;-64
2021/04/01 03:59:00;;;;;;;8.52;5.55;;;4.30;99.90;;;;;;4340687;32;20077;-62
2021/04/01 04:01:48;;;;;;;9.32;5.97;;;4.30;99.90;;;;;;4355321;32;20062;-58
2021/04/01 04:09:46;;;;;;;8.15;5.72;;;4.30;99.90;;;;;;4367695;32;20066;-62
2021/04/01 04:12:59;;;;;;;8.55;5.47;;;4.20;99.90;;;;;;4345307;32;20085;-58
2021/04/01 04:15:08;;;;;;;8.27;5.78;;;4.20;99.90;;;;;;4368865;32;20074;-58
2021/04/01 04:17:35;;;;;;;;;;;4.00;99.90;;;;;;4353000;32;20082;-62
2021/04/01 04:20:01;;;;;;;7.20;5.20;;;4.10;99.90;;;;;;4351355;32;20015;-58
2021/04/01 04:22:27;;;;;;;7.47;5.12;;;4.10;99.90;;;;;;4362908;32;20257;-59
2021/04/01 04:24:54;;;;;;;9.35;6.05;;;4.10;99.90;;;;;;4376945;32;20148;-58
2021/04/01 04:29:59;;;;;;;8.70;5.40;;;4.20;99.90;;;;;;4376288;32;20512;-59
2021/04/01 04:32:34;;;;;;;7.03;5.25;;;4.20;99.90;;;;;;4344461;32;20086;-60
2021/04/01 04:35:02;;;;;;;6.73;4.87;;;4.20;99.90;;;;;;4360529;32;20096;-59
2021/04/01 04:37:28;;;;;;;7.80;4.90;;;4.30;99.90;;;;;;4355370;32;20145;-59
2021/04/01 04:39:54;;;;;;;7.93;5.53;;;4.30;99.90;;;;;;4376692;32;20102;-59
2021/04/01 04:42:20;;;;;;;7.37;5.60;;;4.30;99.90;;;;;;4350655;32;20078;-59
2021/04/01 04:44:47;;;;;;;7.97;5.72;;;4.20;99.90;;;;;;4350487;32;20169;-60
2021/04/01 04:47:13;;;;;;;8.45;5.62;;;4.20;99.90;;;;;;4362809;32;20105;-59
2021/04/01 04:49:39;;;;;;;8.25;5.60;;;4.20;99.90;;;;;;4363328;32;20077;-58
2021/04/01 04:52:07;;;;;;;8.15;5.47;;;4.20;99.90;;;;;;4350350;32;20168;-58
2021/04/01 04:54:33;;;;;;;7.70;6.07;;;4.20;99.90;;;;;;4338635;32;20086;-58
2021/04/01 04:57:08;;;;;;;7.93;6.10;;;4.30;99.90;;;;;;4338022;32;20086;-59
2021/04/01 05:05:06;;;;;;;7.37;5.45;;;4.30;99.90;;;;;;4348274;32;20069;-60
2021/04/01 05:07:32;;;;;;;9.18;5.97;;;4.30;99.90;;;;;;4339550;32;20084;-58
2021/04/01 05:09:59;;;;;;;8.65;5.28;;;4.30;99.90;;;;;;4338202;32;20098;-59
2021/04/01 05:12:25;;;;;;;7.28;5.37;;;4.30;99.90;;;;;;4350314;32;20113;-58
2021/04/01 05:14:51;;;;;;;8.57;6.53;;;4.30;99.90;;;;;;4349902;32;20088;-59
2021/04/01 05:17:19;;;;;;;8.13;5.85;;;4.30;99.90;;;;;;4362452;32;20136;-58
2021/04/01 05:19:48;;;;;;;7.03;5.30;;;4.20;99.90;;;;;;4337870;32;20078;-59
2021/04/01 05:22:16;;;;;;;7.97;5.40;;;4.20;99.90;;;;;;4347338;32;20071;-59
2021/04/01 05:24:43;;;;;;;8.15;5.57;;;4.20;99.90;;;;;;4351240;32;20145;-59
2021/04/01 05:29:40;;;;;;;8.32;5.00;;;4.10;99.90;;;;;;4338511;32;20078;-59
2021/04/01 05:32:07;;;;;;;8.10;5.78;;;4.20;99.90;;;;;;4363080;32;20160;-58
2021/04/01 05:34:37;;;;;;;7.65;5.35;;;4.10;99.90;;;;;;4338332;32;20158;-59
2021/04/01 05:37:05;;;;;;;7.57;5.30;;;4.20;99.90;;;;;;4347025;32;20241;-60
2021/04/01 05:39:36;;;;;;;8.10;6.10;;;4.20;99.90;;;;;;4360602;32;20086;-59
2021/04/01 05:42:03;;;;;;;8.05;5.03;;;4.20;99.90;;;;;;4342441;33;20067;-58
2021/04/01 05:44:36;;;;;;;7.60;5.47;;;4.30;99.90;;;;;;4341394;32;20437;-58
2021/04/01 05:57:49;;;;;;;7.47;5.62;;;4.40;99.90;;;;;;4347684;32;20452;-59
2021/04/01 06:00:36;;;;;;;6.37;4.68;;;4.40;99.90;;;;;;4345978;32;20527;-58
2021/04/01 06:05:35;;;;;;;7.68;5.32;;;4.10;99.90;;;;;;4333177;32;20074;-59
2021/04/01 06:08:13;;;;;;;7.70;4.70;;;4.10;99.90;;;;;;4325697;33;20086;-59
2021/04/01 06:10:40;;;;;;;5.95;4.12;;;4.20;99.90;;;;;;4339707;33;20073;-59
2021/04/01 06:13:14;;;;;;;6.18;4.22;;;4.10;99.90;;;;;;4357829;32;20063;-61
2021/04/01 06:15:46;;;;;;;7.43;4.47;;;4.20;99.90;;;;;;4356143;32;20160;-60
2021/04/01 06:18:17;;;;;;;5.47;4.07;;;4.10;99.90;;;;;;4346679;32;20094;-60
2021/04/01 06:20:45;;;;;;;5.93;3.78;;;4.20;99.90;;;;;;4358912;32;20102;-59
2021/04/01 06:23:28;;;;;;;6.70;5.05;;;4.20;99.90;;;;;;4335132;32;20525;-58
2021/04/01 06:25:55;;;;;;;6.72;4.55;;;4.20;99.90;;;;;;4359399;32;20066;-60
2021/04/01 06:28:38;;;;;;;6.72;4.60;;;4.30;99.90;;;;;;4332546;32;20628;-61
2021/04/01 06:31:04;;;;;;;6.87;3.28;;;4.30;99.90;;;;;;4334851;32;20218;-58
2021/04/01 06:33:51;;;;;;;6.20;5.18;;;4.30;99.90;;;;;;4344139;33;20456;-59
2021/04/01 06:36:23;;;;;;;7.90;4.95;;;4.40;99.90;;;;;;4350307;32;20082;-59
2021/04/01 06:38:49;;;;;;;6.70;5.12;;;4.40;99.90;;;;;;4349072;32;20085;-59
2021/04/01 06:41:27;;;;;;;8.13;4.78;;;4.50;99.90;;;;;;4334210;32;20089;-59
2021/04/01 06:44:30;;;;;;;6.80;4.45;;;4.40;99.90;;;;;;4353594;32;20078;-57
2021/04/01 06:47:06;;;;;;;7.12;6.10;;;4.50;99.90;;;;;;4359534;32;20112;-59
2021/04/01 06:52:44;;;;;;;6.12;4.45;;;4.60;99.90;;;;;;4308195;33;20144;-60
2021/04/01 07:01:01;;;;;;;8.45;5.72;;;4.70;99.90;;;;;;4308893;33;20165;-59
2021/04/01 07:03:43;;;;;;;7.30;5.15;;;4.80;99.90;;;;;;4324382;32;20149;-60
2021/04/01 07:06:15;;;;;;;7.62;4.93;;;4.80;99.90;;;;;;4346824;32;20544;-60
2021/04/01 07:11:38;;;;;;;6.30;4.32;;;4.90;99.90;;;;;;4347024;32;20066;-57
2021/04/01 07:14:25;;;;;;;7.30;5.45;;;4.80;99.90;;;;;;4347970;32;20079;-61
2021/04/01 07:19:29;;;;;;;8.10;4.50;;;4.90;99.90;;;;;;4343362;32;20470;-58
2021/04/01 07:35:58;;;;;;;8.05;5.07;;;5.00;99.90;;;;;;4353902;32;20228;-59
2021/04/01 07:46:51;;;;;;;;;;;5.10;99.90;;;;;;4365285;32;20207;-60
2021/04/01 07:49:23;;;;;;;6.57;5.18;;;5.00;99.90;;;;;;4339119;32;20000;-58
2021/04/01 07:52:02;;;;;;;7.22;4.60;;;5.00;99.90;;;;;;4350573;32;20077;-59
2021/04/01 07:54:38;;;;;;;7.62;5.12;;;5.10;99.90;;;;;;4340121;32;20083;-62
2021/04/01 07:57:30;;;;;;;6.97;4.93;;;5.00;99.90;;;;;;4340156;32;20074;-59
2021/04/01 08:05:29;;;;;;;6.93;5.03;;;5.10;99.90;;;;;;4361691;32;20077;-60
2021/04/01 08:08:01;;;;;;;8.45;6.03;;;5.00;99.90;;;;;;4354776;32;20540;-60
2021/04/01 08:10:33;;;;;;;6.60;5.12;;;5.00;99.90;;;;;;4344673;32;20491;-60
2021/04/01 08:13:08;;;;;;;10.27;5.85;;;5.10;99.90;;;;;;4352999;32;20097;-58
2021/04/01 08:15:47;;;;;;;6.80;5.32;;;5.00;99.90;;;;;;4360849;32;20085;-59
2021/04/01 08:18:28;;;;;;;6.72;4.95;;;5.00;99.90;;;;;;4364576;32;20093;-59
2021/04/01 08:20:59;;;;;;;8.00;5.35;;;5.10;99.90;;;;;;4318819;32;20146;-59
2021/04/01 08:23:31;;;;;;;6.72;5.20;;;5.00;99.90;;;;;;4346540;32;20078;-59
2021/04/01 08:31:37;;;;;;;6.45;4.80;;;4.90;99.90;;;;;;4355404;32;20101;-58
2021/04/01 08:34:34;;;;;;;7.85;5.62;;;5.00;99.90;;;;;;4340723;32;20481;-59
2021/04/01 08:37:04;;;;;;;6.72;4.65;;;5.00;99.90;;;;;;4354703;32;20083;-56
2021/04/01 08:39:31;;;;;;;7.60;5.57;;;5.00;99.90;;;;;;4340001;32;20082;-60
2021/04/01 08:42:17;;;;;;;6.93;5.00;;;4.90;99.90;;;;;;4325757;32;20066;-59
2021/04/01 08:45:12;;;;;;;;;;;5.10;99.90;;;;;;4342146;32;20512;-59
2021/04/01 08:47:59;;;;;;;7.03;4.70;;;4.90;99.90;;;;;;4361302;32;19969;-58
2021/04/01 08:50:30;;;;;;;6.45;3.95;;;5.00;99.90;;;;;;4352920;32;20106;-62
2021/04/01 08:53:42;;;;;;;7.28;4.15;;;5.10;99.90;;;;;;4352187;32;20170;-62
2021/04/01 08:56:27;;;;;;;5.82;3.83;;;5.00;99.90;;;;;;4364141;32;20078;-61
2021/04/01 08:59:04;;;;;;;7.55;4.85;;;5.10;99.90;;;;;;4367016;32;20543;-62
2021/04/01 09:01:43;;;;;;;7.18;3.83;;;5.10;99.90;;;;;;4342070;32;20071;-62
2021/04/01 09:04:10;;;;;;;8.57;4.72;;;5.00;99.90;;;;;;4328055;32;20063;-66
2021/04/01 09:06:42;;;;;;;6.18;4.40;;;5.10;99.90;;;;;;4349472;32;20187;-61
2021/04/01 09:09:15;;;;;;;7.28;3.90;;;5.10;99.90;;;;;;4349722;32;20085;-59
2021/04/01 09:11:50;;;;;;;6.65;4.28;;;5.30;99.90;;;;;;4337722;32;20212;-61
2021/04/01 09:14:31;;;;;;;7.00;4.35;;;5.10;99.90;;;;;;4333209;32;20086;-60
2021/04/01 09:17:09;;;;;;;9.88;4.10;;;5.20;99.90;;;;;;4335468;32;20071;-61
2021/04/01 09:19:39;;;;;;;6.47;4.03;;;5.20;99.90;;;;;;4360273;32;20078;-60
2021/04/01 09:22:23;;;;;;;7.87;4.40;;;5.20;99.90;;;;;;4346221;32;20191;-60
2021/04/01 09:25:08;;;;;;;6.43;4.20;;;5.10;99.90;;;;;;4333969;32;20094;-61
2021/04/01 09:27:49;;;;;;;6.62;3.97;;;5.30;99.90;;;;;;4349666;32;20141;-59
2021/04/01 09:30:17;;;;;;;11.93;4.30;;;5.30;99.90;;;;;;4331650;32;20113;-61
2021/04/01 09:32:46;;;;;;;5.82;4.12;;;5.40;99.90;;;;;;4335956;32;20498;-60
2021/04/01 09:35:13;;;;;;;6.68;4.30;;;5.50;99.90;;;;;;4324345;32;20130;-61
2021/04/01 09:38:07;;;;;;;6.70;4.43;;;5.60;99.90;;;;;;4324473;32;20156;-63
2021/04/01 09:40:39;;;;;;;8.02;5.43;;;5.60;99.90;;;;;;4347292;32;20089;-59
2021/04/01 09:43:20;;;;;;;8.43;5.00;;;5.80;99.90;;;;;;4341537;32;20094;-60
2021/04/01 09:45:52;;;;;;;7.10;4.93;;;5.80;99.90;;;;;;4331847;32;20074;-61
2021/04/01 09:48:26;;;;;;;6.25;4.45;;;5.90;99.90;;;;;;4327507;32;20102;-59
2021/04/01 09:50:57;;;;;;;7.00;4.35;;;5.90;99.90;;;;;;4324100;32;20507;-60
2021/04/01 09:53:23;;;;;;;6.57;4.72;;;5.90;99.90;;;;;;4323646;32;20074;-61
2021/04/01 09:55:52;;;;;;;6.87;5.28;;;5.70;99.90;;;;;;4348499;32;20157;-60
2021/04/01 09:58:21;;;;;;;7.90;4.68;;;5.70;99.90;;;;;;4335040;32;20189;-64
2021/04/01 10:03:47;;;;;;;7.37;5.18;;;5.40;99.90;;;;;;4359174;32;20069;-63
2021/04/01 10:06:35;;;;;;;5.95;4.60;;;5.20;99.90;;;;;;4358367;32;20477;-63
2021/04/01 10:09:22;;;;;;;7.35;4.70;;;5.30;99.90;;;;;;4333239;32;20449;-63
2021/04/01 10:12:05;;;;;;;6.22;4.85;;;5.40;99.90;;;;;;4359455;32;20081;-62
2021/04/01 10:14:32;;;;;;;9.15;4.93;;;5.30;99.90;;;;;;4354117;32;20112;-63
2021/04/01 10:17:09;;;;;;;7.62;4.65;;;5.30;99.90;;;;;;4356690;32;20448;-62
2021/04/01 10:19:44;;;;;;;9.55;4.80;;;5.20;99.90;;;;;;4358175;32;20063;-64
2021/04/01 10:22:32;;;;;;;6.10;4.18;;;5.30;99.90;;;;;;4307687;32;20646;-62
2021/04/01 10:25:17;;;;;;;6.07;4.85;;;5.30;99.90;;;;;;4332177;32;20488;-60
2021/04/01 10:28:12;;;;;;;7.85;4.85;;;5.40;99.90;;;;;;4346038;32;20110;-60
2021/04/01 10:30:34;;;;;;;7.32;4.95;;;5.40;99.90;;;;;;4346166;32;20109;-63
2021/04/01 10:33:10;;;;;;;6.45;5.00;;;5.40;99.90;;;;;;4350528;32;20502;-61
2021/04/01 10:35:37;;;;;;;7.07;4.80;;;5.40;99.90;;;;;;4352656;32;20080;-60
2021/04/01 10:38:04;;;;;;;6.22;4.72;;;5.50;99.90;;;;;;4340360;32;20171;-61
2021/04/01 10:40:32;;;;;;;7.62;4.50;;;5.40;99.90;;;;;;4333404;32;20191;-62
2021/04/01 10:43:07;;;;;;;7.10;4.80;;;5.50;99.90;;;;;;4336958;32;20082;-64
2021/04/01 10:45:40;;;;;;;8.40;5.18;;;5.40;99.90;;;;;;4354344;32;20109;-63
2021/04/01 10:48:12;;;;;;;5.93;5.03;;;5.30;99.90;;;;;;4367504;32;20168;-61
2021/04/01 10:50:39;;;;;;;7.78;5.37;;;5.40;99.90;;;;;;4359716;32;20547;-62
2021/04/01 10:53:05;;;;;;;6.70;5.28;;;5.40;99.90;;;;;;4322503;32;20097;-61
2021/04/01 10:55:31;;;;;;;7.45;5.68;;;5.30;99.90;;;;;;4347628;32;20179;-62
2021/04/01 10:58:08;;;;;;;7.18;5.60;;;5.40;99.90;;;;;;4354228;32;20051;-60
2021/04/01 11:00:35;;;;;;;6.55;4.62;;;5.40;99.90;;;;;;4345798;32;20065;-62
2021/04/01 11:03:03;;;;;;;6.53;4.75;;;5.30;99.90;;;;;;4346531;32;20070;-60
2021/04/01 11:05:32;;;;;;;6.05;4.28;;;5.40;99.90;;;;;;4365638;32;20547;-60
2021/04/01 11:08:07;;;;;;;8.32;5.70;;;5.30;99.90;;;;;;4333708;32;20167;-61
2021/04/01 11:10:33;;;;;;;6.90;5.20;;;5.30;99.90;;;;;;4364211;32;20078;-61
2021/04/01 11:13:05;;;;;;;7.62;5.18;;;5.30;99.90;;;;;;4352948;32;20137;-61
2021/04/01 11:15:36;;;;;;;8.77;5.18;;;5.30;99.90;;;;;;4353825;32;20105;-61
2021/04/01 11:18:19;;;;;;;6.40;4.12;;;5.30;99.90;;;;;;4338714;32;20146;-66
2021/04/01 11:20:51;;;;;;;8.75;5.32;;;5.30;99.90;;;;;;4355939;32;20137;-59
2021/04/01 11:23:20;;;;;;;7.05;5.32;;;5.30;99.90;;;;;;4347568;32;20093;-62
2021/04/01 11:25:57;;;;;;;7.65;4.93;;;5.40;99.90;;;;;;4342078;32;20507;-60
2021/04/01 11:28:56;;;;;;;7.90;4.85;;;5.30;99.90;;;;;;4343586;32;20081;-61
2021/04/01 11:31:28;;;;;;;7.35;5.35;;;5.30;99.90;;;;;;4319425;32;20087;-61
2021/04/01 11:33:58;;;;;;;7.00;5.15;;;5.40;99.90;;;;;;4352929;32;20073;-62
2021/04/01 11:36:28;;;;;;;6.90;4.70;;;5.30;99.90;;;;;;4338850;32;20108;-62
2021/04/01 11:38:59;;;;;;;8.52;6.22;;;5.40;99.90;;;;;;4343148;32;20531;-62
2021/04/01 11:41:27;;;;;;;7.75;5.55;;;5.40;99.90;;;;;;4334235;32;20160;-63
2021/04/01 11:44:01;;;;;;;6.68;4.70;;;5.50;99.90;;;;;;4352641;32;20074;-61
2021/04/01 11:46:33;;;;;;;8.27;5.75;;;5.50;99.90;;;;;;4355484;32;20081;-62
2021/04/01 11:49:00;;;;;;;7.40;5.90;;;5.50;99.90;;;;;;4334393;32;20073;-59
2021/04/01 11:51:36;;;;;;;7.30;6.07;;;5.50;99.90;;;;;;4350322;32;20072;-59
2021/04/01 11:54:04;;;;;;;6.95;5.85;;;5.60;99.90;;;;;;4326838;32;20070;-62
2021/04/01 11:56:35;;;;;;;11.65;5.93;;;5.60;99.90;;;;;;4326288;32;20136;-61
2021/04/01 11:59:16;;;;;;;6.87;4.18;;;5.60;99.90;;;;;;4347273;32;20081;-72
2021/04/01 12:01:56;;;;;;;6.80;5.47;;;5.60;99.90;;;;;;4317081;32;20068;-64
2021/04/01 12:04:25;;;;;;;8.20;6.07;;;5.70;99.90;;;;;;4346744;32;20203;-62
2021/04/01 12:06:51;;;;;;;7.65;5.60;;;5.70;99.90;;;;;;4335313;32;20062;-63
2021/04/01 12:09:18;;;;;;;7.85;5.50;;;5.70;99.90;;;;;;4314056;32;20512;-62
2021/04/01 12:11:45;;;;;;;8.32;5.62;;;5.80;99.90;;;;;;4327981;32;20454;-62
2021/04/01 12:14:16;;;;;;;7.12;5.62;;;5.80;99.90;;;;;;4325858;32;20542;-61
2021/04/01 12:16:47;;;;;;;7.93;5.55;;;5.80;99.90;;;;;;4354237;32;20074;-62
2021/04/01 12:19:13;;;;;;;10.52;5.25;;;5.80;99.90;;;;;;4330009;32;20078;-63
2021/04/01 12:21:39;;;;;;;8.30;5.47;;;5.80;99.90;;;;;;4348075;32;20058;-61
2021/04/01 12:24:07;;;;;;;7.75;5.70;;;5.90;99.90;;;;;;4350318;32;20094;-62
2021/04/01 12:26:54;;;;;;;7.65;5.80;;;5.90;99.90;;;;;;4337447;32;20074;-62
2021/04/01 12:29:22;;;;;;;8.35;5.60;;;5.80;99.90;;;;;;4336187;32;20078;-63
2021/04/01 12:31:54;;;;;;;7.87;5.35;;;5.90;99.90;;;;;;4360478;32;20067;-61
2021/04/01 12:34:38;;;;;;;6.97;5.53;;;5.90;99.90;;;;;;4327377;32;20102;-61
2021/04/01 12:37:14;;;;;;;6.50;5.57;;;5.90;99.90;;;;;;4318342;32;20162;-60
2021/04/01 12:39:40;;;;;;;7.35;5.95;;;5.90;99.90;;;;;;4324208;32;20567;-65
2021/04/01 12:42:07;;;;;;;8.68;5.50;;;5.80;99.90;;;;;;4339025;32;20542;-62
2021/04/01 12:44:39;;;;;;;7.85;5.90;;;5.90;99.90;;;;;;4336648;33;20155;-62
2021/04/01 12:47:06;;;;;;;6.80;5.47;;;6.00;99.90;;;;;;4340926;32;20144;-61
2021/04/01 12:49:33;;;;;;;8.35;5.70;;;6.00;99.90;;;;;;4311373;32;20545;-60
2021/04/01 12:52:02;;;;;;;7.78;5.85;;;6.00;99.90;;;;;;4316020;32;20101;-59
2021/04/01 12:54:34;;;;;;;6.50;4.72;;;5.90;99.90;;;;;;4331004;32;20059;-62
2021/04/01 12:57:02;;;;;;;9.15;6.22;;;6.00;99.90;;;;;;4329939;33;20059;-60
2021/04/01 12:59:38;;;;;;;8.65;6.25;;;5.90;99.90;;;;;;4334222;32;20086;-60
2021/04/01 13:02:07;;;;;;;7.95;5.82;;;6.00;99.90;;;;;;4305804;32;20171;-61
2021/04/01 13:04:35;;;;;;;7.68;5.82;;;6.10;99.90;;;;;;4329394;32;20063;-59
2021/04/01 13:09:49;;;;;;;7.68;5.32;;;6.00;99.90;;;;;;4324194;32;20070;-60
2021/04/01 13:12:18;;;;;;;7.70;6.28;;;6.00;99.90;;;;;;4333766;32;20094;-62
2021/04/01 13:14:46;;;;;;;7.45;6.18;;;6.00;99.90;;;;;;4322137;32;20591;-61
2021/04/01 13:17:12;;;;;;;7.93;6.25;;;6.00;99.90;;;;;;4320604;32;20123;-63
2021/04/01 13:19:39;;;;;;;8.35;5.97;;;6.00;99.90;;;;;;4334927;32;20627;-63
2021/04/01 13:22:09;;;;;;;9.23;6.05;;;5.90;99.90;;;;;;4331037;32;20155;-63
2021/04/01 13:27:02;;;;;;;8.88;5.87;;;5.90;99.90;;;;;;4334097;32;20114;-59
2021/04/01 13:29:31;;;;;;;7.85;6.25;;;6.00;99.90;;;;;;4334906;32;20624;-62
2021/04/01 13:32:12;;;;;;;7.00;5.70;;;6.00;99.90;;;;;;4348054;32;20594;-63
2021/04/01 13:34:43;;;;;;;7.95;6.30;;;6.00;99.90;;;;;;4352106;32;20075;-64
2021/04/01 13:37:33;;;;;;;8.25;6.28;;;6.00;99.90;;;;;;4333345;32;20073;-62
2021/04/01 13:40:03;;;;;;;7.95;6.00;;;6.00;99.90;;;;;;4337473;32;20096;-63
2021/04/01 13:42:32;;;;;;;9.05;6.72;;;5.90;99.90;;;;;;4349128;32;20077;-63
2021/04/01 13:45:09;;;;;;;9.55;5.68;;;5.90;99.90;;;;;;4336728;32;20094;-65
2021/04/01 13:47:41;;;;;;;8.10;5.62;;;5.90;99.90;;;;;;4329322;32;20094;-64
2021/04/01 13:50:11;;;;;;;8.60;5.60;;;6.00;99.90;;;;;;4334806;32;20086;-61
2021/04/01 13:52:47;;;;;;;8.82;6.85;;;6.00;99.90;;;;;;4344738;32;20086;-61
2021/04/01 13:55:20;;;;;;;9.27;5.78;;;6.00;99.90;;;;;;4352805;32;20066;-63
2021/04/01 14:11:20;;;;;;;8.45;5.87;;;6.00;99.90;;;;;;4343667;32;20081;-62
2021/04/01 14:13:47;;;;;;;8.40;6.28;;;6.00;99.90;;;;;;4346332;32;20117;-62
2021/04/01 14:16:17;;;;;;;8.63;6.28;;;6.00;99.90;;;;;;4348817;32;20496;-64
2021/04/01 14:18:46;;;;;;;10.07;7.25;;;6.00;99.90;;;;;;4355262;32;20067;-63
2021/04/01 14:21:13;;;;;;;7.85;6.50;;;6.00;99.90;;;;;;4329099;32;20587;-63
2021/04/01 14:23:40;;;;;;;8.80;6.32;;;6.10;99.90;;;;;;4339857;32;20062;-62
2021/04/01 14:28:35;;;;;;;8.15;6.22;;;6.00;99.90;;;;;;4338416;32;20096;-61
2021/04/01 14:31:03;;;;;;;8.00;6.53;;;6.10;99.90;;;;;;4367091;32;20083;-63
2021/04/01 14:33:29;;;;;;;9.27;7.57;;;6.10;99.90;;;;;;4345156;32;20184;-63
2021/04/01 14:35:58;;;;;;;9.68;7.55;;;6.20;99.90;;;;;;4324481;32;20078;-62
2021/04/01 14:38:24;;;;;;;9.20;7.40;;;6.20;99.90;;;;;;4316680;32;20081;-63
2021/04/01 14:41:06;;;;;;;9.00;7.43;;;6.20;99.90;;;;;;4336610;32;20102;-62
2021/04/01 14:44:19;;;;;;;8.40;5.85;;;6.20;99.90;;;;;;4338319;32;20062;-63
2021/04/01 14:46:19;;;;;;;9.00;5.60;;;6.30;99.90;;;;;;4317551;32;20564;-63
2021/04/01 14:48:45;;;;;;;16.52;6.03;;;6.30;99.90;;;;;;4338156;32;20066;-71
2021/04/01 14:51:12;;;;;;;13.23;6.85;;;6.30;99.90;;;;;;4357956;32;20086;-68
2021/04/01 14:56:08;;;;;;;11.07;6.30;;;6.30;99.90;;;;;;4337008;33;20130;-64
2021/04/01 14:58:35;;;;;;;10.07;6.40;;;6.30;99.90;;;;;;4325642;32;20066;-63
2021/04/01 15:01:01;;;;;;;8.80;5.72;;;6.20;99.90;;;;;;4339868;32;20055;-63
2021/04/01 15:03:27;;;;;;;9.68;5.60;;;6.30;99.90;;;;;;4350443;32;20163;-61